sensor_id;sensor_type;location;lat;lon;timestamp;P1;durP1;ratioP1;P2;durP2;ratioP2
20454;SDS011;10386;54.314;10.022;2023-02-01T00:01:12;29.97;;;4.03;;
20454;SDS011;10386;54.314;10.022;2023-02-01T00:03:39;30.67;;;5.20;;
20454;SDS011;10386;54.314;10.022;2023-02-01T00:06:05;27.00;;;4.83;;
20454;SDS011;10386;54.314;10.022;2023-02-01T00:08:32;29.43;;;4.60;;
20454;SDS011;10386;54.314;10.022;2023-02-01T00:10:59;29.50;;;4.50;;
20454;SDS011;10386;54.314;10.022;2023-02-01T00:13:31;33.10;;;4.40;;
20454;SDS011;10386;54.314;10.022;2023-02-01T00:16:03;23.30;;;4.13;;
20454;SDS011;10386;54.314;10.022;2023-02-01T00:18:31;30.57;;;4.63;;
20454;SDS011;10386;54.314;10.022;2023-02-01T00:20:58;22.70;;;3.90;;
20454;SDS011;10386;54.314;10.022;2023-02-01T00:23:25;35.87;;;5.17;;
20454;SDS011;10386;54.314;10.022;2023-02-01T00:25:52;26.80;;;5.07;;
20454;SDS011;10386;54.314;10.022;2023-02-01T00:28:19;39.67;;;4.67;;
20454;SDS011;10386;54.314;10.022;2023-02-01T00:30:46;33.80;;;5.20;;
20454;SDS011;10386;54.314;10.022;2023-02-01T00:33:12;35.50;;;5.40;;
20454;SDS011;10386;54.314;10.022;2023-02-01T00:35:39;29.93;;;5.27;;
20454;SDS011;10386;54.314;10.022;2023-02-01T00:38:06;32.60;;;5.17;;
20454;SDS011;10386;54.314;10.022;2023-02-01T00:40:33;38.10;;;6.27;;
20454;SDS011;10386;54.314;10.022;2023-02-01T00:42:59;32.83;;;6.57;;
20454;SDS011;10386;54.314;10.022;2023-02-01T00:45:26;40.10;;;5.10;;
20454;SDS011;10386;54.314;10.022;2023-02-01T00:47:53;24.13;;;4.97;;
20454;SDS011;10386;54.314;10.022;2023-02-01T00:50:20;34.47;;;5.37;;
20454;SDS011;10386;54.314;10.022;2023-02-01T00:52:47;25.30;;;4.73;;
20454;SDS011;10386;54.314;10.022;2023-02-01T00:55:13;44.20;;;6.80;;
20454;SDS011;10386;54.314;10.022;2023-02-01T00:57:40;34.83;;;5.20;;
20454;SDS011;10386;54.314;10.022;2023-02-01T01:00:07;30.07;;;5.23;;
20454;SDS011;10386;54.314;10.022;2023-02-01T01:02:34;23.57;;;4.57;;
20454;SDS011;10386;54.314;10.022;2023-02-01T01:05:01;36.63;;;5.03;;
20454;SDS011;10386;54.314;10.022;2023-02-01T01:07:28;41.13;;;5.40;;
20454;SDS011;10386;54.314;10.022;2023-02-01T01:09:54;24.20;;;4.87;;
20454;SDS011;10386;54.314;10.022;2023-02-01T01:12:21;34.73;;;5.10;;
20454;SDS011;10386;54.314;10.022;2023-02-01T01:14:48;23.50;;;5.13;;
20454;SDS011;10386;54.314;10.022;2023-02-01T01:17:15;27.93;;;5.17;;
20454;SDS011;10386;54.314;10.022;2023-02-01T01:19:42;25.93;;;5.03;;
20454;SDS011;10386;54.314;10.022;2023-02-01T01:22:09;25.50;;;5.93;;
20454;SDS011;10386;54.314;10.022;2023-02-01T01:24:36;30.40;;;5.23;;
20454;SDS011;10386;54.314;10.022;2023-02-01T01:27:02;42.30;;;5.78;;
20454;SDS011;10386;54.314;10.022;2023-02-01T01:29:29;32.20;;;5.50;;
20454;SDS011;10386;54.314;10.022;2023-02-01T01:31:56;31.43;;;5.50;;
20454;SDS011;10386;54.314;10.022;2023-02-01T01:34:23;35.03;;;5.73;;
20454;SDS011;10386;54.314;10.022;2023-02-01T01:36:49;41.60;;;6.70;;
20454;SDS011;10386;54.314;10.022;2023-02-01T01:39:16;33.60;;;5.57;;
20454;SDS011;10386;54.314;10.022;2023-02-01T01:41:43;34.25;;;5.97;;
20454;SDS011;10386;54.314;10.022;2023-02-01T01:47:14;37.77;;;5.13;;
20454;SDS011;10386;54.314;10.022;2023-02-01T01:49:42;37.57;;;5.50;;
20454;SDS011;10386;54.314;10.022;2023-02-01T01:52:10;33.33;;;5.00;;
20454;SDS011;10386;54.314;10.022;2023-02-01T01:54:38;34.20;;;5.67;;
20454;SDS011;10386;54.314;10.022;2023-02-01T01:57:11;33.65;;;6.25;;
20454;SDS011;10386;54.314;10.022;2023-02-01T01:59:43;39.80;;;5.83;;
20454;SDS011;10386;54.314;10.022;2023-02-01T02:02:15;38.40;;;6.43;;
20454;SDS011;10386;54.314;10.022;2023-02-01T02:04:42;32.30;;;5.40;;
20454;SDS011;10386;54.314;10.022;2023-02-01T02:07:14;30.23;;;5.00;;
20454;SDS011;10386;54.314;10.022;2023-02-01T02:09:44;39.17;;;5.23;;
20454;SDS011;10386;54.314;10.022;2023-02-01T02:12:25;31.27;;;5.03;;
20454;SDS011;10386;54.314;10.022;2023-02-01T02:14:52;33.77;;;5.57;;
20454;SDS011;10386;54.314;10.022;2023-02-01T02:20:30;49.23;;;6.07;;
20454;SDS011;10386;54.314;10.022;2023-02-01T02:23:10;35.00;;;6.17;;
20454;SDS011;10386;54.314;10.022;2023-02-01T02:34:57;39.63;;;5.63;;
20454;SDS011;10386;54.314;10.022;2023-02-01T02:43:23;36.63;;;5.70;;
20454;SDS011;10386;54.314;10.022;2023-02-01T02:46:21;31.37;;;6.00;;
20454;SDS011;10386;54.314;10.022;2023-02-01T02:49:18;40.07;;;6.40;;
20454;SDS011;10386;54.314;10.022;2023-02-01T02:51:53;48.73;;;5.87;;
20454;SDS011;10386;54.314;10.022;2023-02-01T02:54:45;33.77;;;5.27;;
20454;SDS011;10386;54.314;10.022;2023-02-01T02:57:26;35.07;;;5.67;;
20454;SDS011;10386;54.314;10.022;2023-02-01T03:00:15;38.70;;;6.30;;
20454;SDS011;10386;54.314;10.022;2023-02-01T03:03:04;43.90;;;6.23;;
20454;SDS011;10386;54.314;10.022;2023-02-01T03:05:50;41.50;;;6.40;;
20454;SDS011;10386;54.314;10.022;2023-02-01T03:08:18;37.87;;;5.50;;
20454;SDS011;10386;54.314;10.022;2023-02-01T03:10:53;38.63;;;6.33;;
20454;SDS011;10386;54.314;10.022;2023-02-01T03:18:56;39.03;;;6.67;;
20454;SDS011;10386;54.314;10.022;2023-02-01T03:21:25;36.40;;;6.37;;
20454;SDS011;10386;54.314;10.022;2023-02-01T03:23:56;40.80;;;6.33;;
20454;SDS011;10386;54.314;10.022;2023-02-01T03:26:28;45.90;;;6.70;;
20454;SDS011;10386;54.314;10.022;2023-02-01T03:29:36;39.33;;;7.03;;
20454;SDS011;10386;54.314;10.022;2023-02-01T03:31:58;34.55;;;6.03;;
20454;SDS011;10386;54.314;10.022;2023-02-01T03:34:25;48.27;;;6.10;;
20454;SDS011;10386;54.314;10.022;2023-02-01T03:36:55;35.83;;;6.13;;
20454;SDS011;10386;54.314;10.022;2023-02-01T03:39:38;35.13;;;6.80;;
20454;SDS011;10386;54.314;10.022;2023-02-01T03:42:16;35.90;;;5.43;;
20454;SDS011;10386;54.314;10.022;2023-02-01T03:44:49;22.73;;;4.97;;
20454;SDS011;10386;54.314;10.022;2023-02-01T03:47:22;33.70;;;5.40;;
20454;SDS011;10386;54.314;10.022;2023-02-01T03:50:02;26.07;;;4.23;;
20454;SDS011;10386;54.314;10.022;2023-02-01T03:52:43;20.90;;;3.47;;
20454;SDS011;10386;54.314;10.022;2023-02-01T03:55:17;23.07;;;4.40;;
20454;SDS011;10386;54.314;10.022;2023-02-01T03:58:11;24.17;;;3.97;;
20454;SDS011;10386;54.314;10.022;2023-02-01T04:00:39;21.03;;;3.67;;
20454;SDS011;10386;54.314;10.022;2023-02-01T04:03:06;21.50;;;4.00;;
20454;SDS011;10386;54.314;10.022;2023-02-01T04:05:34;21.57;;;4.20;;
20454;SDS011;10386;54.314;10.022;2023-02-01T04:08:01;17.23;;;2.90;;
20454;SDS011;10386;54.314;10.022;2023-02-01T04:10:28;15.70;;;3.03;;
20454;SDS011;10386;54.314;10.022;2023-02-01T04:12:54;16.50;;;2.97;;
20454;SDS011;10386;54.314;10.022;2023-02-01T04:15:21;8.57;;;2.73;;
20454;SDS011;10386;54.314;10.022;2023-02-01T04:17:48;8.00;;;2.13;;
20454;SDS011;10386;54.314;10.022;2023-02-01T04:20:15;14.60;;;2.40;;
20454;SDS011;10386;54.314;10.022;2023-02-01T04:22:42;13.67;;;1.97;;
20454;SDS011;10386;54.314;10.022;2023-02-01T04:25:08;8.60;;;2.10;;
20454;SDS011;10386;54.314;10.022;2023-02-01T04:27:35;12.07;;;2.20;;
20454;SDS011;10386;54.314;10.022;2023-02-01T04:30:03;12.10;;;2.53;;
20454;SDS011;10386;54.314;10.022;2023-02-01T04:32:30;15.07;;;3.47;;
20454;SDS011;10386;54.314;10.022;2023-02-01T04:34:57;12.63;;;2.83;;
20454;SDS011;10386;54.314;10.022;2023-02-01T04:37:23;11.33;;;2.47;;
20454;SDS011;10386;54.314;10.022;2023-02-01T04:39:50;13.90;;;2.53;;
20454;SDS011;10386;54.314;10.022;2023-02-01T04:42:17;15.40;;;2.73;;
20454;SDS011;10386;54.314;10.022;2023-02-01T04:44:44;19.63;;;3.23;;
20454;SDS011;10386;54.314;10.022;2023-02-01T04:47:10;9.70;;;2.50;;
20454;SDS011;10386;54.314;10.022;2023-02-01T04:49:37;11.37;;;2.73;;
20454;SDS011;10386;54.314;10.022;2023-02-01T04:52:04;10.30;;;2.60;;
20454;SDS011;10386;54.314;10.022;2023-02-01T04:54:31;21.37;;;3.20;;
20454;SDS011;10386;54.314;10.022;2023-02-01T04:56:57;21.97;;;3.77;;
20454;SDS011;10386;54.314;10.022;2023-02-01T04:59:24;24.43;;;3.23;;
20454;SDS011;10386;54.314;10.022;2023-02-01T05:01:51;16.77;;;3.00;;
20454;SDS011;10386;54.314;10.022;2023-02-01T05:04:18;16.87;;;2.67;;
20454;SDS011;10386;54.314;10.022;2023-02-01T05:06:48;18.63;;;2.80;;
20454;SDS011;10386;54.314;10.022;2023-02-01T05:09:15;18.73;;;2.80;;
20454;SDS011;10386;54.314;10.022;2023-02-01T05:11:42;17.07;;;3.07;;
20454;SDS011;10386;54.314;10.022;2023-02-01T05:14:29;18.00;;;3.07;;
20454;SDS011;10386;54.314;10.022;2023-02-01T05:16:55;17.97;;;3.43;;
20454;SDS011;10386;54.314;10.022;2023-02-01T05:19:22;27.53;;;4.27;;
20454;SDS011;10386;54.314;10.022;2023-02-01T05:21:49;19.03;;;2.90;;
20454;SDS011;10386;54.314;10.022;2023-02-01T05:24:15;20.00;;;3.20;;
20454;SDS011;10386;54.314;10.022;2023-02-01T05:26:48;27.23;;;3.80;;
20454;SDS011;10386;54.314;10.022;2023-02-01T05:29:16;29.70;;;3.77;;
20454;SDS011;10386;54.314;10.022;2023-02-01T05:31:44;24.87;;;3.30;;
20454;SDS011;10386;54.314;10.022;2023-02-01T05:34:12;13.90;;;3.13;;
20454;SDS011;10386;54.314;10.022;2023-02-01T05:36:40;18.47;;;3.13;;
20454;SDS011;10386;54.314;10.022;2023-02-01T05:39:06;16.70;;;3.40;;
20454;SDS011;10386;54.314;10.022;2023-02-01T05:41:34;21.83;;;3.23;;
20454;SDS011;10386;54.314;10.022;2023-02-01T05:44:01;18.37;;;3.50;;
20454;SDS011;10386;54.314;10.022;2023-02-01T05:46:27;10.43;;;2.50;;
20454;SDS011;10386;54.314;10.022;2023-02-01T05:48:54;11.20;;;2.87;;
20454;SDS011;10386;54.314;10.022;2023-02-01T05:51:21;17.77;;;3.43;;
20454;SDS011;10386;54.314;10.022;2023-02-01T05:53:48;15.20;;;2.90;;
20454;SDS011;10386;54.314;10.022;2023-02-01T05:56:14;18.40;;;3.60;;
20454;SDS011;10386;54.314;10.022;2023-02-01T05:58:41;24.33;;;3.77;;
20454;SDS011;10386;54.314;10.022;2023-02-01T06:01:08;24.20;;;4.00;;
20454;SDS011;10386;54.314;10.022;2023-02-01T06:03:34;20.13;;;3.30;;
20454;SDS011;10386;54.314;10.022;2023-02-01T06:06:01;13.10;;;3.63;;
20454;SDS011;10386;54.314;10.022;2023-02-01T06:08:28;20.17;;;3.60;;
20454;SDS011;10386;54.314;10.022;2023-02-01T06:11:02;20.90;;;3.53;;
20454;SDS011;10386;54.314;10.022;2023-02-01T06:13:31;23.37;;;4.33;;
20454;SDS011;10386;54.314;10.022;2023-02-01T06:16:00;18.73;;;3.80;;
20454;SDS011;10386;54.314;10.022;2023-02-01T06:18:28;22.13;;;3.43;;
20454;SDS011;10386;54.314;10.022;2023-02-01T06:20:57;20.10;;;3.13;;
20454;SDS011;10386;54.314;10.022;2023-02-01T06:23:28;23.13;;;3.03;;
20454;SDS011;10386;54.314;10.022;2023-02-01T06:26:00;18.23;;;3.47;;
20454;SDS011;10386;54.314;10.022;2023-02-01T06:28:29;17.40;;;3.20;;
20454;SDS011;10386;54.314;10.022;2023-02-01T06:30:56;19.23;;;3.17;;
20454;SDS011;10386;54.314;10.022;2023-02-01T06:33:24;13.23;;;2.43;;
20454;SDS011;10386;54.314;10.022;2023-02-01T06:35:58;14.30;;;3.00;;
20454;SDS011;10386;54.314;10.022;2023-02-01T06:38:29;21.17;;;3.03;;
20454;SDS011;10386;54.314;10.022;2023-02-01T06:40:57;13.40;;;2.97;;
20454;SDS011;10386;54.314;10.022;2023-02-01T06:43:24;17.27;;;3.63;;
20454;SDS011;10386;54.314;10.022;2023-02-01T06:45:53;17.17;;;3.57;;
20454;SDS011;10386;54.314;10.022;2023-02-01T06:48:25;25.47;;;3.70;;
20454;SDS011;10386;54.314;10.022;2023-02-01T06:50:52;23.40;;;3.33;;
20454;SDS011;10386;54.314;10.022;2023-02-01T06:53:18;22.43;;;3.33;;
20454;SDS011;10386;54.314;10.022;2023-02-01T06:55:52;24.83;;;4.03;;
20454;SDS011;10386;54.314;10.022;2023-02-01T06:58:19;63.83;;;4.27;;
20454;SDS011;10386;54.314;10.022;2023-02-01T07:00:47;21.93;;;3.80;;
20454;SDS011;10386;54.314;10.022;2023-02-01T07:03:14;16.83;;;3.20;;
20454;SDS011;10386;54.314;10.022;2023-02-01T07:05:41;22.97;;;4.17;;
20454;SDS011;10386;54.314;10.022;2023-02-01T07:08:08;24.60;;;3.73;;
20454;SDS011;10386;54.314;10.022;2023-02-01T07:10:34;34.47;;;4.57;;
20454;SDS011;10386;54.314;10.022;2023-02-01T07:13:01;27.57;;;5.23;;
20454;SDS011;10386;54.314;10.022;2023-02-01T07:15:28;24.73;;;3.90;;
20454;SDS011;10386;54.314;10.022;2023-02-01T07:17:55;27.70;;;5.10;;
20454;SDS011;10386;54.314;10.022;2023-02-01T07:20:22;24.20;;;4.53;;
20454;SDS011;10386;54.314;10.022;2023-02-01T07:22:54;31.80;;;4.63;;
20454;SDS011;10386;54.314;10.022;2023-02-01T07:25:23;31.40;;;5.43;;
20454;SDS011;10386;54.314;10.022;2023-02-01T07:27:50;28.07;;;4.30;;
20454;SDS011;10386;54.314;10.022;2023-02-01T07:30:17;34.70;;;5.40;;
20454;SDS011;10386;54.314;10.022;2023-02-01T07:32:44;21.30;;;4.63;;
20454;SDS011;10386;54.314;10.022;2023-02-01T07:35:11;30.73;;;4.30;;
20454;SDS011;10386;54.314;10.022;2023-02-01T07:37:37;33.87;;;5.83;;
20454;SDS011;10386;54.314;10.022;2023-02-01T07:40:04;33.60;;;4.87;;
20454;SDS011;10386;54.314;10.022;2023-02-01T07:42:31;25.80;;;5.03;;
20454;SDS011;10386;54.314;10.022;2023-02-01T07:44:58;27.30;;;5.40;;
20454;SDS011;10386;54.314;10.022;2023-02-01T07:47:46;23.43;;;4.77;;
20454;SDS011;10386;54.314;10.022;2023-02-01T07:50:13;30.10;;;4.73;;
20454;SDS011;10386;54.314;10.022;2023-02-01T07:52:39;30.03;;;5.50;;
20454;SDS011;10386;54.314;10.022;2023-02-01T07:55:07;32.30;;;5.17;;
20454;SDS011;10386;54.314;10.022;2023-02-01T07:57:34;29.20;;;5.10;;
20454;SDS011;10386;54.314;10.022;2023-02-01T08:00:00;35.47;;;5.00;;
20454;SDS011;10386;54.314;10.022;2023-02-01T08:02:46;30.17;;;6.07;;
20454;SDS011;10386;54.314;10.022;2023-02-01T08:05:13;37.50;;;5.13;;
20454;SDS011;10386;54.314;10.022;2023-02-01T08:07:39;26.53;;;4.90;;
20454;SDS011;10386;54.314;10.022;2023-02-01T08:10:06;28.20;;;4.20;;
20454;SDS011;10386;54.314;10.022;2023-02-01T08:12:37;23.83;;;4.13;;
20454;SDS011;10386;54.314;10.022;2023-02-01T08:15:04;24.93;;;3.83;;
20454;SDS011;10386;54.314;10.022;2023-02-01T08:17:31;21.37;;;4.00;;
20454;SDS011;10386;54.314;10.022;2023-02-01T08:19:58;28.67;;;4.10;;
20454;SDS011;10386;54.314;10.022;2023-02-01T08:22:24;21.87;;;4.73;;
20454;SDS011;10386;54.314;10.022;2023-02-01T08:24:51;15.63;;;3.17;;
20454;SDS011;10386;54.314;10.022;2023-02-01T08:27:27;22.83;;;4.00;;
20454;SDS011;10386;54.314;10.022;2023-02-01T08:29:54;25.80;;;3.70;;
20454;SDS011;10386;54.314;10.022;2023-02-01T08:32:21;20.67;;;3.70;;
20454;SDS011;10386;54.314;10.022;2023-02-01T08:34:47;17.23;;;3.17;;
20454;SDS011;10386;54.314;10.022;2023-02-01T08:37:14;22.87;;;3.53;;
20454;SDS011;10386;54.314;10.022;2023-02-01T08:39:41;26.43;;;4.10;;
20454;SDS011;10386;54.314;10.022;2023-02-01T08:42:12;19.40;;;3.97;;
20454;SDS011;10386;54.314;10.022;2023-02-01T08:44:58;27.17;;;5.07;;
20454;SDS011;10386;54.314;10.022;2023-02-01T08:47:24;20.10;;;3.97;;
20454;SDS011;10386;54.314;10.022;2023-02-01T08:49:51;27.73;;;4.77;;
20454;SDS011;10386;54.314;10.022;2023-02-01T08:52:19;21.03;;;3.80;;
20454;SDS011;10386;54.314;10.022;2023-02-01T08:54:46;32.23;;;4.23;;
20454;SDS011;10386;54.314;10.022;2023-02-01T08:57:13;26.63;;;3.87;;
20454;SDS011;10386;54.314;10.022;2023-02-01T08:59:41;26.17;;;3.97;;
20454;SDS011;10386;54.314;10.022;2023-02-01T09:02:16;17.30;;;3.80;;
20454;SDS011;10386;54.314;10.022;2023-02-01T09:04:43;29.73;;;4.13;;
20454;SDS011;10386;54.314;10.022;2023-02-01T09:07:10;25.03;;;4.23;;
20454;SDS011;10386;54.314;10.022;2023-02-01T09:09:37;20.87;;;3.97;;
20454;SDS011;10386;54.314;10.022;2023-02-01T09:12:04;23.97;;;4.10;;
20454;SDS011;10386;54.314;10.022;2023-02-01T09:14:31;19.87;;;3.93;;
20454;SDS011;10386;54.314;10.022;2023-02-01T09:16:58;28.23;;;4.17;;
20454;SDS011;10386;54.314;10.022;2023-02-01T09:19:25;29.57;;;4.93;;
20454;SDS011;10386;54.314;10.022;2023-02-01T09:21:52;23.67;;;4.57;;
20454;SDS011;10386;54.314;10.022;2023-02-01T09:24:19;30.33;;;4.33;;
20454;SDS011;10386;54.314;10.022;2023-02-01T09:26:46;24.87;;;4.93;;
20454;SDS011;10386;54.314;10.022;2023-02-01T09:29:14;23.90;;;4.50;;
20454;SDS011;10386;54.314;10.022;2023-02-01T09:31:41;19.53;;;4.37;;
20454;SDS011;10386;54.314;10.022;2023-02-01T09:34:18;30.90;;;4.67;;
20454;SDS011;10386;54.314;10.022;2023-02-01T09:36:45;23.13;;;4.23;;
20454;SDS011;10386;54.314;10.022;2023-02-01T09:39:12;25.90;;;4.97;;
20454;SDS011;10386;54.314;10.022;2023-02-01T09:41:59;30.20;;;4.90;;
20454;SDS011;10386;54.314;10.022;2023-02-01T09:47:36;24.50;;;4.40;;
20454;SDS011;10386;54.314;10.022;2023-02-01T09:50:22;36.27;;;4.53;;
20454;SDS011;10386;54.314;10.022;2023-02-01T09:55:34;21.90;;;4.47;;
20454;SDS011;10386;54.314;10.022;2023-02-01T10:00:47;24.57;;;4.40;;
20454;SDS011;10386;54.314;10.022;2023-02-01T10:03:18;27.80;;;5.17;;
20454;SDS011;10386;54.314;10.022;2023-02-01T10:14:47;29.23;;;5.20;;
20454;SDS011;10386;54.314;10.022;2023-02-01T10:23:02;28.40;;;4.33;;
20454;SDS011;10386;54.314;10.022;2023-02-01T10:26:09;26.97;;;5.37;;
20454;SDS011;10386;54.314;10.022;2023-02-01T10:28:44;25.27;;;4.33;;
20454;SDS011;10386;54.314;10.022;2023-02-01T10:31:15;35.20;;;4.90;;
20454;SDS011;10386;54.314;10.022;2023-02-01T10:33:50;21.73;;;4.47;;
20454;SDS011;10386;54.314;10.022;2023-02-01T10:36:29;26.07;;;5.13;;
20454;SDS011;10386;54.314;10.022;2023-02-01T10:38:57;29.97;;;4.63;;
20454;SDS011;10386;54.314;10.022;2023-02-01T10:41:29;28.37;;;5.27;;
20454;SDS011;10386;54.314;10.022;2023-02-01T10:43:59;22.50;;;3.63;;
20454;SDS011;10386;54.314;10.022;2023-02-01T10:46:29;24.80;;;4.37;;
20454;SDS011;10386;54.314;10.022;2023-02-01T10:48:58;29.10;;;5.53;;
20454;SDS011;10386;54.314;10.022;2023-02-01T10:54:18;27.97;;;4.43;;
20454;SDS011;10386;54.314;10.022;2023-02-01T10:56:57;19.03;;;3.53;;
20454;SDS011;10386;54.314;10.022;2023-02-01T10:59:27;29.87;;;4.40;;
20454;SDS011;10386;54.314;10.022;2023-02-01T11:02:00;20.63;;;3.57;;
20454;SDS011;10386;54.314;10.022;2023-02-01T11:04:30;20.30;;;4.10;;
20454;SDS011;10386;54.314;10.022;2023-02-01T11:07:12;25.03;;;4.53;;
20454;SDS011;10386;54.314;10.022;2023-02-01T11:09:53;21.40;;;3.77;;
20454;SDS011;10386;54.314;10.022;2023-02-01T11:17:50;22.83;;;4.33;;
20454;SDS011;10386;54.314;10.022;2023-02-01T11:22:57;22.00;;;4.83;;
20454;SDS011;10386;54.314;10.022;2023-02-01T11:25:24;30.13;;;4.10;;
20454;SDS011;10386;54.314;10.022;2023-02-01T11:27:54;39.57;;;5.33;;
20454;SDS011;10386;54.314;10.022;2023-02-01T11:30:32;18.03;;;4.73;;
20454;SDS011;10386;54.314;10.022;2023-02-01T11:33:01;29.40;;;5.37;;
20454;SDS011;10386;54.314;10.022;2023-02-01T11:35:32;28.60;;;4.37;;
20454;SDS011;10386;54.314;10.022;2023-02-01T11:38:10;24.50;;;5.33;;
20454;SDS011;10386;54.314;10.022;2023-02-01T11:40:40;28.40;;;5.23;;
20454;SDS011;10386;54.314;10.022;2023-02-01T11:43:08;25.20;;;4.50;;
20454;SDS011;10386;54.314;10.022;2023-02-01T11:45:41;25.33;;;4.23;;
20454;SDS011;10386;54.314;10.022;2023-02-01T11:48:20;29.27;;;4.83;;
20454;SDS011;10386;54.314;10.022;2023-02-01T11:55:56;23.63;;;5.60;;
20454;SDS011;10386;54.314;10.022;2023-02-01T11:58:48;37.70;;;4.63;;
20454;SDS011;10386;54.314;10.022;2023-02-01T12:01:43;16.73;;;3.10;;
20454;SDS011;10386;54.314;10.022;2023-02-01T12:14:53;8.13;;;1.90;;
20454;SDS011;10386;54.314;10.022;2023-02-01T12:18:26;8.63;;;1.87;;
20454;SDS011;10386;54.314;10.022;2023-02-01T12:20:34;5.00;;;1.57;;
20454;SDS011;10386;54.314;10.022;2023-02-01T12:23:29;4.50;;;1.50;;
20454;SDS011;10386;54.314;10.022;2023-02-01T12:26:35;9.67;;;1.70;;
20454;SDS011;10386;54.314;10.022;2023-02-01T12:43:45;17.77;;;3.20;;
20454;SDS011;10386;54.314;10.022;2023-02-01T12:46:28;16.00;;;3.47;;
20454;SDS011;10386;54.314;10.022;2023-02-01T12:49:01;23.10;;;3.73;;
20454;SDS011;10386;54.314;10.022;2023-02-01T12:51:37;15.13;;;3.20;;
20454;SDS011;10386;54.314;10.022;2023-02-01T12:54:10;21.60;;;3.57;;
20454;SDS011;10386;54.314;10.022;2023-02-01T12:56:41;25.63;;;3.53;;
20454;SDS011;10386;54.314;10.022;2023-02-01T12:59:34;16.23;;;3.30;;
20454;SDS011;10386;54.314;10.022;2023-02-01T13:04:56;9.30;;;2.63;;
20454;SDS011;10386;54.314;10.022;2023-02-01T13:07:35;22.10;;;4.17;;
20454;SDS011;10386;54.314;10.022;2023-02-01T13:15:48;13.30;;;3.10;;
20454;SDS011;10386;54.314;10.022;2023-02-01T13:18:22;15.37;;;3.27;;
20454;SDS011;10386;54.314;10.022;2023-02-01T13:20:58;16.90;;;3.57;;
20454;SDS011;10386;54.314;10.022;2023-02-01T13:23:37;17.13;;;3.00;;
20454;SDS011;10386;54.314;10.022;2023-02-01T13:26:06;12.60;;;2.47;;
20454;SDS011;10386;54.314;10.022;2023-02-01T13:28:50;7.40;;;3.10;;
20454;SDS011;10386;54.314;10.022;2023-02-01T13:37:14;10.53;;;2.70;;
20454;SDS011;10386;54.314;10.022;2023-02-01T13:43:05;22.27;;;3.60;;
20454;SDS011;10386;54.314;10.022;2023-02-01T13:45:48;14.27;;;3.60;;
20454;SDS011;10386;54.314;10.022;2023-02-01T13:48:25;9.47;;;3.10;;
20454;SDS011;10386;54.314;10.022;2023-02-01T13:50:57;30.80;;;9.10;;
20454;SDS011;10386;54.314;10.022;2023-02-01T13:53:30;15.53;;;3.63;;
20454;SDS011;10386;54.314;10.022;2023-02-01T13:58:37;14.53;;;3.80;;
20454;SDS011;10386;54.314;10.022;2023-02-01T14:03:48;22.00;;;4.53;;
20454;SDS011;10386;54.314;10.022;2023-02-01T14:06:17;15.60;;;3.23;;
20454;SDS011;10386;54.314;10.022;2023-02-01T14:21:54;22.57;;;3.60;;
20454;SDS011;10386;54.314;10.022;2023-02-01T14:24:29;27.07;;;3.80;;
20454;SDS011;10386;54.314;10.022;2023-02-01T14:26:59;20.73;;;3.67;;
20454;SDS011;10386;54.314;10.022;2023-02-01T14:29:33;24.93;;;4.20;;
20454;SDS011;10386;54.314;10.022;2023-02-01T14:39:49;28.80;;;4.73;;
20454;SDS011;10386;54.314;10.022;2023-02-01T14:48:38;24.13;;;4.37;;
20454;SDS011;10386;54.314;10.022;2023-02-01T14:50:46;22.77;;;4.40;;
20454;SDS011;10386;54.314;10.022;2023-02-01T14:53:18;23.20;;;4.40;;
20454;SDS011;10386;54.314;10.022;2023-02-01T15:06:37;23.20;;;3.67;;
20454;SDS011;10386;54.314;10.022;2023-02-01T15:14:33;25.33;;;4.60;;
20454;SDS011;10386;54.314;10.022;2023-02-01T15:17:02;26.90;;;5.40;;
20454;SDS011;10386;54.314;10.022;2023-02-01T15:19:41;21.73;;;4.30;;
20454;SDS011;10386;54.314;10.022;2023-02-01T15:22:34;21.57;;;5.07;;
20454;SDS011;10386;54.314;10.022;2023-02-01T15:25:01;31.90;;;4.70;;
20454;SDS011;10386;54.314;10.022;2023-02-01T15:27:29;29.00;;;4.83;;
20454;SDS011;10386;54.314;10.022;2023-02-01T15:30:12;30.87;;;4.73;;
20454;SDS011;10386;54.314;10.022;2023-02-01T15:32:44;35.57;;;7.23;;
20454;SDS011;10386;54.314;10.022;2023-02-01T15:41:21;31.20;;;5.63;;
20454;SDS011;10386;54.314;10.022;2023-02-01T15:46:22;28.47;;;5.40;;
20454;SDS011;10386;54.314;10.022;2023-02-01T15:49:52;42.80;;;6.43;;
20454;SDS011;10386;54.314;10.022;2023-02-01T15:52:08;33.77;;;5.50;;
20454;SDS011;10386;54.314;10.022;2023-02-01T15:54:49;43.37;;;7.57;;
20454;SDS011;10386;54.314;10.022;2023-02-01T15:57:25;46.50;;;6.07;;
20454;SDS011;10386;54.314;10.022;2023-02-01T15:59:58;40.40;;;6.20;;
20454;SDS011;10386;54.314;10.022;2023-02-01T16:02:53;28.03;;;5.03;;
20454;SDS011;10386;54.314;10.022;2023-02-01T16:05:44;38.50;;;5.20;;
20454;SDS011;10386;54.314;10.022;2023-02-01T16:10:46;41.50;;;6.50;;
20454;SDS011;10386;54.314;10.022;2023-02-01T16:13:15;33.93;;;5.20;;
20454;SDS011;10386;54.314;10.022;2023-02-01T16:15:42;27.90;;;4.90;;
20454;SDS011;10386;54.314;10.022;2023-02-01T16:18:10;37.20;;;6.00;;
20454;SDS011;10386;54.314;10.022;2023-02-01T16:20:39;32.43;;;4.90;;
20454;SDS011;10386;54.314;10.022;2023-02-01T16:23:07;35.17;;;6.03;;
20454;SDS011;10386;54.314;10.022;2023-02-01T16:25:36;30.67;;;5.50;;
20454;SDS011;10386;54.314;10.022;2023-02-01T16:28:03;36.07;;;5.20;;
20454;SDS011;10386;54.314;10.022;2023-02-01T16:30:31;28.40;;;5.20;;
20454;SDS011;10386;54.314;10.022;2023-02-01T16:32:59;36.67;;;6.13;;
20454;SDS011;10386;54.314;10.022;2023-02-01T16:35:32;39.47;;;5.97;;
20454;SDS011;10386;54.314;10.022;2023-02-01T16:38:11;31.40;;;5.00;;
20454;SDS011;10386;54.314;10.022;2023-02-01T16:40:40;36.03;;;5.50;;
20454;SDS011;10386;54.314;10.022;2023-02-01T16:43:29;36.00;;;5.60;;
20454;SDS011;10386;54.314;10.022;2023-02-01T16:45:55;35.23;;;6.00;;
20454;SDS011;10386;54.314;10.022;2023-02-01T16:48:30;35.23;;;5.97;;
20454;SDS011;10386;54.314;10.022;2023-02-01T16:51:02;39.17;;;5.57;;
20454;SDS011;10386;54.314;10.022;2023-02-01T16:53:34;29.07;;;6.67;;
20454;SDS011;10386;54.314;10.022;2023-02-01T16:56:22;37.80;;;6.20;;
20454;SDS011;10386;54.314;10.022;2023-02-01T16:58:51;39.53;;;5.67;;
20454;SDS011;10386;54.314;10.022;2023-02-01T17:01:20;37.93;;;6.23;;
20454;SDS011;10386;54.314;10.022;2023-02-01T17:03:51;36.63;;;5.03;;
20454;SDS011;10386;54.314;10.022;2023-02-01T17:06:19;35.00;;;5.20;;
20454;SDS011;10386;54.314;10.022;2023-02-01T17:08:52;31.57;;;5.70;;
20454;SDS011;10386;54.314;10.022;2023-02-01T17:11:20;34.53;;;5.73;;
20454;SDS011;10386;54.314;10.022;2023-02-01T17:13:47;38.07;;;5.50;;
20454;SDS011;10386;54.314;10.022;2023-02-01T17:16:19;22.30;;;4.80;;
20454;SDS011;10386;54.314;10.022;2023-02-01T17:18:52;43.00;;;5.83;;
20454;SDS011;10386;54.314;10.022;2023-02-01T17:21:22;34.83;;;5.67;;
20454;SDS011;10386;54.314;10.022;2023-02-01T17:23:51;30.17;;;5.87;;
20454;SDS011;10386;54.314;10.022;2023-02-01T17:26:19;42.43;;;5.97;;
20454;SDS011;10386;54.314;10.022;2023-02-01T17:28:46;39.07;;;7.20;;
20454;SDS011;10386;54.314;10.022;2023-02-01T17:31:13;26.47;;;5.13;;
20454;SDS011;10386;54.314;10.022;2023-02-01T17:33:42;32.13;;;6.43;;